sensor_id;sensor_type;location;lat;lon;timestamp;P1;durP1;ratioP1;P2;durP2;ratioP2
20482;SDS011;10400;53.198;6.592;2023-05-09T00:01:14;64.07;;;31.45;;
20482;SDS011;10400;53.198;6.592;2023-05-09T00:03:41;67.45;;;31.98;;
20482;SDS011;10400;53.198;6.592;2023-05-09T00:06:07;62.58;;;31.85;;
20482;SDS011;10400;53.198;6.592;2023-05-09T00:08:33;65.38;;;32.20;;
20482;SDS011;10400;53.198;6.592;2023-05-09T00:11:00;64.25;;;32.58;;
20482;SDS011;10400;53.198;6.592;2023-05-09T00:13:26;58.28;;;30.05;;
20482;SDS011;10400;53.198;6.592;2023-05-09T00:15:52;57.35;;;29.90;;
20482;SDS011;10400;53.198;6.592;2023-05-09T00:18:18;69.55;;;32.88;;
20482;SDS011;10400;53.198;6.592;2023-05-09T00:20:44;64.80;;;30.90;;
20482;SDS011;10400;53.198;6.592;2023-05-09T00:23:10;64.70;;;31.98;;
20482;SDS011;10400;53.198;6.592;2023-05-09T00:25:35;66.80;;;32.72;;
20482;SDS011;10400;53.198;6.592;2023-05-09T00:28:01;66.07;;;33.10;;
20482;SDS011;10400;53.198;6.592;2023-05-09T00:30:27;66.85;;;34.63;;
20482;SDS011;10400;53.198;6.592;2023-05-09T00:32:52;68.20;;;34.40;;
20482;SDS011;10400;53.198;6.592;2023-05-09T00:35:18;69.97;;;34.97;;
20482;SDS011;10400;53.198;6.592;2023-05-09T00:37:43;71.90;;;35.35;;
20482;SDS011;10400;53.198;6.592;2023-05-09T00:40:09;73.55;;;34.53;;
20482;SDS011;10400;53.198;6.592;2023-05-09T00:42:35;68.70;;;34.72;;
20482;SDS011;10400;53.198;6.592;2023-05-09T00:45:01;66.00;;;33.55;;
20482;SDS011;10400;53.198;6.592;2023-05-09T00:47:27;64.78;;;33.17;;
20482;SDS011;10400;53.198;6.592;2023-05-09T00:49:53;69.65;;;33.00;;
20482;SDS011;10400;53.198;6.592;2023-05-09T00:52:21;63.47;;;32.35;;
20482;SDS011;10400;53.198;6.592;2023-05-09T00:54:50;67.85;;;33.33;;
20482;SDS011;10400;53.198;6.592;2023-05-09T00:57:17;64.68;;;31.20;;
20482;SDS011;10400;53.198;6.592;2023-05-09T00:59:42;61.00;;;31.83;;
20482;SDS011;10400;53.198;6.592;2023-05-09T01:02:08;59.90;;;30.58;;
20482;SDS011;10400;53.198;6.592;2023-05-09T01:04:35;64.00;;;31.50;;
20482;SDS011;10400;53.198;6.592;2023-05-09T01:07:12;63.90;;;30.88;;
20482;SDS011;10400;53.198;6.592;2023-05-09T01:10:02;61.08;;;31.05;;
20482;SDS011;10400;53.198;6.592;2023-05-09T01:21:12;58.97;;;31.58;;
20482;SDS011;10400;53.198;6.592;2023-05-09T01:26:19;63.88;;;32.13;;
20482;SDS011;10400;53.198;6.592;2023-05-09T01:29:26;64.13;;;33.13;;
20482;SDS011;10400;53.198;6.592;2023-05-09T01:31:56;62.38;;;31.75;;
20482;SDS011;10400;53.198;6.592;2023-05-09T01:34:25;65.88;;;32.05;;
20482;SDS011;10400;53.198;6.592;2023-05-09T01:36:54;66.20;;;33.17;;
20482;SDS011;10400;53.198;6.592;2023-05-09T01:39:23;63.55;;;32.80;;
20482;SDS011;10400;53.198;6.592;2023-05-09T01:41:51;60.67;;;32.03;;
20482;SDS011;10400;53.198;6.592;2023-05-09T01:44:19;68.00;;;33.28;;
20482;SDS011;10400;53.198;6.592;2023-05-09T01:46:46;63.50;;;32.80;;
20482;SDS011;10400;53.198;6.592;2023-05-09T01:49:12;66.38;;;33.20;;
20482;SDS011;10400;53.198;6.592;2023-05-09T01:51:40;60.88;;;32.35;;
20482;SDS011;10400;53.198;6.592;2023-05-09T01:54:06;65.40;;;32.47;;
20482;SDS011;10400;53.198;6.592;2023-05-09T01:56:34;65.28;;;32.92;;
20482;SDS011;10400;53.198;6.592;2023-05-09T01:59:01;63.03;;;33.13;;
20482;SDS011;10400;53.198;6.592;2023-05-09T02:01:27;60.22;;;34.20;;
20482;SDS011;10400;53.198;6.592;2023-05-09T02:03:54;61.92;;;32.50;;
20482;SDS011;10400;53.198;6.592;2023-05-09T02:06:21;67.18;;;33.60;;
20482;SDS011;10400;53.198;6.592;2023-05-09T02:08:48;63.92;;;32.90;;
20482;SDS011;10400;53.198;6.592;2023-05-09T02:11:14;69.60;;;33.20;;
20482;SDS011;10400;53.198;6.592;2023-05-09T02:13:40;64.18;;;32.58;;
20482;SDS011;10400;53.198;6.592;2023-05-09T02:16:06;65.15;;;32.83;;
20482;SDS011;10400;53.198;6.592;2023-05-09T02:18:35;67.35;;;32.63;;
20482;SDS011;10400;53.198;6.592;2023-05-09T02:21:01;69.78;;;34.15;;
20482;SDS011;10400;53.198;6.592;2023-05-09T02:23:27;66.25;;;33.75;;
20482;SDS011;10400;53.198;6.592;2023-05-09T02:25:53;69.90;;;35.33;;
20482;SDS011;10400;53.198;6.592;2023-05-09T02:28:19;68.53;;;34.40;;
20482;SDS011;10400;53.198;6.592;2023-05-09T02:30:47;63.42;;;32.00;;
20482;SDS011;10400;53.198;6.592;2023-05-09T02:33:14;66.40;;;32.75;;
20482;SDS011;10400;53.198;6.592;2023-05-09T02:35:41;73.28;;;35.35;;
20482;SDS011;10400;53.198;6.592;2023-05-09T02:38:08;66.90;;;34.28;;
20482;SDS011;10400;53.198;6.592;2023-05-09T02:40:34;69.38;;;34.45;;
20482;SDS011;10400;53.198;6.592;2023-05-09T02:43:00;65.00;;;33.75;;
20482;SDS011;10400;53.198;6.592;2023-05-09T02:45:26;66.90;;;34.17;;
20482;SDS011;10400;53.198;6.592;2023-05-09T02:47:51;65.50;;;34.58;;
20482;SDS011;10400;53.198;6.592;2023-05-09T02:50:17;65.95;;;33.38;;
20482;SDS011;10400;53.198;6.592;2023-05-09T02:52:43;67.38;;;36.10;;
20482;SDS011;10400;53.198;6.592;2023-05-09T02:55:09;71.07;;;35.72;;
20482;SDS011;10400;53.198;6.592;2023-05-09T02:57:34;68.72;;;33.30;;
20482;SDS011;10400;53.198;6.592;2023-05-09T03:00:00;69.07;;;35.13;;
20482;SDS011;10400;53.198;6.592;2023-05-09T03:02:26;72.88;;;35.33;;
20482;SDS011;10400;53.198;6.592;2023-05-09T03:04:52;71.15;;;34.38;;
20482;SDS011;10400;53.198;6.592;2023-05-09T03:07:17;71.15;;;35.13;;
20482;SDS011;10400;53.198;6.592;2023-05-09T03:09:43;65.80;;;35.30;;
20482;SDS011;10400;53.198;6.592;2023-05-09T03:12:08;76.80;;;38.08;;
20482;SDS011;10400;53.198;6.592;2023-05-09T03:14:34;72.00;;;37.28;;
20482;SDS011;10400;53.198;6.592;2023-05-09T03:17:00;75.50;;;35.10;;
20482;SDS011;10400;53.198;6.592;2023-05-09T03:19:26;77.45;;;37.42;;
20482;SDS011;10400;53.198;6.592;2023-05-09T03:21:51;78.80;;;37.78;;
20482;SDS011;10400;53.198;6.592;2023-05-09T03:24:17;77.00;;;37.72;;
20482;SDS011;10400;53.198;6.592;2023-05-09T03:26:42;73.45;;;37.42;;
20482;SDS011;10400;53.198;6.592;2023-05-09T03:29:08;74.75;;;39.22;;
20482;SDS011;10400;53.198;6.592;2023-05-09T03:31:34;76.28;;;42.00;;
20482;SDS011;10400;53.198;6.592;2023-05-09T03:34:00;82.13;;;43.40;;
20482;SDS011;10400;53.198;6.592;2023-05-09T03:36:25;84.47;;;43.53;;
20482;SDS011;10400;53.198;6.592;2023-05-09T03:38:51;82.93;;;42.03;;
20482;SDS011;10400;53.198;6.592;2023-05-09T03:41:17;78.07;;;39.83;;
20482;SDS011;10400;53.198;6.592;2023-05-09T03:43:43;79.20;;;40.00;;
20482;SDS011;10400;53.198;6.592;2023-05-09T03:46:09;74.40;;;38.72;;
20482;SDS011;10400;53.198;6.592;2023-05-09T03:48:34;81.80;;;40.33;;
20482;SDS011;10400;53.198;6.592;2023-05-09T03:51:00;79.32;;;39.47;;
20482;SDS011;10400;53.198;6.592;2023-05-09T03:53:26;83.03;;;40.72;;
20482;SDS011;10400;53.198;6.592;2023-05-09T03:55:52;78.85;;;39.05;;
20482;SDS011;10400;53.198;6.592;2023-05-09T03:58:18;81.22;;;38.15;;
20482;SDS011;10400;53.198;6.592;2023-05-09T04:00:44;77.38;;;37.95;;
20482;SDS011;10400;53.198;6.592;2023-05-09T04:03:10;75.03;;;38.15;;
20482;SDS011;10400;53.198;6.592;2023-05-09T04:05:35;75.15;;;38.72;;
20482;SDS011;10400;53.198;6.592;2023-05-09T04:08:02;81.88;;;40.15;;
20482;SDS011;10400;53.198;6.592;2023-05-09T04:10:29;80.68;;;38.67;;
20482;SDS011;10400;53.198;6.592;2023-05-09T04:12:55;79.07;;;39.28;;
20482;SDS011;10400;53.198;6.592;2023-05-09T04:15:21;78.05;;;39.13;;
20482;SDS011;10400;53.198;6.592;2023-05-09T04:17:46;77.68;;;37.95;;
20482;SDS011;10400;53.198;6.592;2023-05-09T04:20:12;78.85;;;38.28;;
20482;SDS011;10400;53.198;6.592;2023-05-09T04:22:38;75.18;;;38.15;;
20482;SDS011;10400;53.198;6.592;2023-05-09T04:25:03;80.47;;;38.35;;
20482;SDS011;10400;53.198;6.592;2023-05-09T04:27:31;75.18;;;38.13;;
20482;SDS011;10400;53.198;6.592;2023-05-09T04:29:56;76.88;;;39.88;;
20482;SDS011;10400;53.198;6.592;2023-05-09T04:32:22;72.00;;;38.63;;
20482;SDS011;10400;53.198;6.592;2023-05-09T04:34:48;79.93;;;41.67;;
20482;SDS011;10400;53.198;6.592;2023-05-09T04:37:14;81.40;;;40.20;;
20482;SDS011;10400;53.198;6.592;2023-05-09T04:39:39;78.35;;;41.78;;
20482;SDS011;10400;53.198;6.592;2023-05-09T04:42:05;82.10;;;42.97;;
20482;SDS011;10400;53.198;6.592;2023-05-09T04:44:31;81.55;;;43.13;;
20482;SDS011;10400;53.198;6.592;2023-05-09T04:46:57;85.97;;;44.03;;
20482;SDS011;10400;53.198;6.592;2023-05-09T04:49:23;87.70;;;44.25;;
20482;SDS011;10400;53.198;6.592;2023-05-09T04:51:49;85.22;;;44.15;;
20482;SDS011;10400;53.198;6.592;2023-05-09T04:54:15;90.45;;;45.50;;
20482;SDS011;10400;53.198;6.592;2023-05-09T04:56:41;86.00;;;44.40;;
20482;SDS011;10400;53.198;6.592;2023-05-09T04:59:07;84.72;;;45.35;;
20482;SDS011;10400;53.198;6.592;2023-05-09T05:01:32;89.50;;;46.00;;
20482;SDS011;10400;53.198;6.592;2023-05-09T05:03:58;86.80;;;45.30;;
20482;SDS011;10400;53.198;6.592;2023-05-09T05:06:24;86.20;;;46.25;;
20482;SDS011;10400;53.198;6.592;2023-05-09T05:08:49;85.18;;;46.20;;
20482;SDS011;10400;53.198;6.592;2023-05-09T05:11:15;82.35;;;45.28;;
20482;SDS011;10400;53.198;6.592;2023-05-09T05:13:42;87.90;;;45.75;;
20482;SDS011;10400;53.198;6.592;2023-05-09T05:16:08;81.10;;;45.40;;
20482;SDS011;10400;53.198;6.592;2023-05-09T05:18:34;80.50;;;44.20;;
20482;SDS011;10400;53.198;6.592;2023-05-09T05:20:59;81.15;;;44.88;;
20482;SDS011;10400;53.198;6.592;2023-05-09T05:23:25;82.07;;;44.40;;
20482;SDS011;10400;53.198;6.592;2023-05-09T05:25:51;74.03;;;44.38;;
20482;SDS011;10400;53.198;6.592;2023-05-09T05:28:17;77.70;;;43.50;;
20482;SDS011;10400;53.198;6.592;2023-05-09T05:30:42;73.22;;;43.72;;
20482;SDS011;10400;53.198;6.592;2023-05-09T05:33:08;70.78;;;43.00;;
20482;SDS011;10400;53.198;6.592;2023-05-09T05:35:34;69.60;;;42.15;;
20482;SDS011;10400;53.198;6.592;2023-05-09T05:37:59;72.85;;;41.92;;
20482;SDS011;10400;53.198;6.592;2023-05-09T05:40:25;67.97;;;41.25;;
20482;SDS011;10400;53.198;6.592;2023-05-09T05:42:51;60.40;;;39.35;;
20482;SDS011;10400;53.198;6.592;2023-05-09T05:45:16;60.15;;;38.38;;
20482;SDS011;10400;53.198;6.592;2023-05-09T05:47:42;61.17;;;39.10;;
20482;SDS011;10400;53.198;6.592;2023-05-09T05:50:07;60.85;;;38.28;;
20482;SDS011;10400;53.198;6.592;2023-05-09T05:52:36;55.13;;;34.40;;
20482;SDS011;10400;53.198;6.592;2023-05-09T05:55:02;47.25;;;32.13;;
20482;SDS011;10400;53.198;6.592;2023-05-09T05:57:28;45.15;;;30.88;;
20482;SDS011;10400;53.198;6.592;2023-05-09T05:59:54;43.63;;;28.98;;
20482;SDS011;10400;53.198;6.592;2023-05-09T06:02:20;36.78;;;26.58;;
20482;SDS011;10400;53.198;6.592;2023-05-09T06:04:46;34.45;;;25.67;;
20482;SDS011;10400;53.198;6.592;2023-05-09T06:07:11;33.22;;;24.48;;
20482;SDS011;10400;53.198;6.592;2023-05-09T06:09:38;33.72;;;25.80;;
20482;SDS011;10400;53.198;6.592;2023-05-09T06:12:03;33.78;;;24.15;;
20482;SDS011;10400;53.198;6.592;2023-05-09T06:14:30;34.90;;;24.50;;
20482;SDS011;10400;53.198;6.592;2023-05-09T06:16:56;31.48;;;24.60;;
20482;SDS011;10400;53.198;6.592;2023-05-09T06:19:22;32.90;;;24.88;;
20482;SDS011;10400;53.198;6.592;2023-05-09T06:21:48;36.50;;;24.88;;
20482;SDS011;10400;53.198;6.592;2023-05-09T06:24:14;34.78;;;24.90;;
20482;SDS011;10400;53.198;6.592;2023-05-09T06:26:39;33.75;;;23.95;;
20482;SDS011;10400;53.198;6.592;2023-05-09T06:29:05;30.45;;;22.92;;
20482;SDS011;10400;53.198;6.592;2023-05-09T06:31:31;33.05;;;24.73;;
20482;SDS011;10400;53.198;6.592;2023-05-09T06:34:02;34.15;;;23.55;;
20482;SDS011;10400;53.198;6.592;2023-05-09T06:36:28;35.17;;;24.08;;
20482;SDS011;10400;53.198;6.592;2023-05-09T06:38:54;33.95;;;24.33;;
20482;SDS011;10400;53.198;6.592;2023-05-09T06:41:20;38.08;;;24.45;;
20482;SDS011;10400;53.198;6.592;2023-05-09T06:43:46;37.75;;;25.52;;
20482;SDS011;10400;53.198;6.592;2023-05-09T06:46:12;36.13;;;24.13;;
20482;SDS011;10400;53.198;6.592;2023-05-09T06:48:37;35.58;;;24.00;;
20482;SDS011;10400;53.198;6.592;2023-05-09T06:51:03;37.65;;;25.00;;
20482;SDS011;10400;53.198;6.592;2023-05-09T06:53:29;38.80;;;26.00;;
20482;SDS011;10400;53.198;6.592;2023-05-09T06:55:54;38.35;;;26.10;;
20482;SDS011;10400;53.198;6.592;2023-05-09T06:58:20;39.30;;;26.38;;
20482;SDS011;10400;53.198;6.592;2023-05-09T07:00:45;37.10;;;26.83;;
20482;SDS011;10400;53.198;6.592;2023-05-09T07:03:11;38.30;;;26.45;;
20482;SDS011;10400;53.198;6.592;2023-05-09T07:05:37;37.25;;;26.95;;
20482;SDS011;10400;53.198;6.592;2023-05-09T07:08:03;41.55;;;28.30;;
20482;SDS011;10400;53.198;6.592;2023-05-09T07:10:29;43.90;;;28.38;;
20482;SDS011;10400;53.198;6.592;2023-05-09T07:12:54;47.70;;;29.83;;
20482;SDS011;10400;53.198;6.592;2023-05-09T07:15:20;48.22;;;29.20;;
20482;SDS011;10400;53.198;6.592;2023-05-09T07:17:46;46.53;;;30.38;;
20482;SDS011;10400;53.198;6.592;2023-05-09T07:20:11;45.80;;;30.17;;
20482;SDS011;10400;53.198;6.592;2023-05-09T07:22:37;45.72;;;30.77;;
20482;SDS011;10400;53.198;6.592;2023-05-09T07:25:03;48.78;;;30.15;;
20482;SDS011;10400;53.198;6.592;2023-05-09T07:27:32;51.33;;;30.85;;
20482;SDS011;10400;53.198;6.592;2023-05-09T07:29:59;55.25;;;32.97;;
20482;SDS011;10400;53.198;6.592;2023-05-09T07:32:24;54.25;;;32.40;;
20482;SDS011;10400;53.198;6.592;2023-05-09T07:34:52;62.40;;;34.75;;
20482;SDS011;10400;53.198;6.592;2023-05-09T07:37:18;58.25;;;34.53;;
20482;SDS011;10400;53.198;6.592;2023-05-09T07:39:44;61.30;;;35.20;;
20482;SDS011;10400;53.198;6.592;2023-05-09T07:42:11;65.43;;;36.92;;
20482;SDS011;10400;53.198;6.592;2023-05-09T07:44:37;68.60;;;36.47;;
20482;SDS011;10400;53.198;6.592;2023-05-09T07:47:03;65.32;;;35.80;;
20482;SDS011;10400;53.198;6.592;2023-05-09T07:49:29;66.25;;;36.50;;
20482;SDS011;10400;53.198;6.592;2023-05-09T07:51:55;62.50;;;36.10;;
20482;SDS011;10400;53.198;6.592;2023-05-09T07:54:21;64.10;;;36.03;;
20482;SDS011;10400;53.198;6.592;2023-05-09T07:56:47;67.78;;;34.83;;
20482;SDS011;10400;53.198;6.592;2023-05-09T07:59:12;58.38;;;34.97;;
20482;SDS011;10400;53.198;6.592;2023-05-09T08:01:38;65.00;;;36.67;;
20482;SDS011;10400;53.198;6.592;2023-05-09T08:04:04;61.42;;;35.15;;
20482;SDS011;10400;53.198;6.592;2023-05-09T08:06:30;59.85;;;35.10;;
20482;SDS011;10400;53.198;6.592;2023-05-09T08:08:57;61.13;;;37.38;;
20482;SDS011;10400;53.198;6.592;2023-05-09T08:11:22;64.85;;;37.58;;
20482;SDS011;10400;53.198;6.592;2023-05-09T08:13:48;67.93;;;38.05;;
20482;SDS011;10400;53.198;6.592;2023-05-09T08:16:14;71.15;;;38.45;;
20482;SDS011;10400;53.198;6.592;2023-05-09T08:18:41;66.40;;;37.78;;
20482;SDS011;10400;53.198;6.592;2023-05-09T08:21:07;74.47;;;40.15;;
20482;SDS011;10400;53.198;6.592;2023-05-09T08:23:32;66.75;;;38.17;;
20482;SDS011;10400;53.198;6.592;2023-05-09T08:25:58;71.35;;;38.45;;
20482;SDS011;10400;53.198;6.592;2023-05-09T08:28:24;68.68;;;38.92;;
20482;SDS011;10400;53.198;6.592;2023-05-09T08:30:52;71.75;;;38.38;;
20482;SDS011;10400;53.198;6.592;2023-05-09T08:33:18;71.22;;;39.35;;
20482;SDS011;10400;53.198;6.592;2023-05-09T08:35:44;69.55;;;38.10;;
20482;SDS011;10400;53.198;6.592;2023-05-09T08:38:14;70.55;;;39.63;;
20482;SDS011;10400;53.198;6.592;2023-05-09T08:40:40;67.97;;;39.15;;
20482;SDS011;10400;53.198;6.592;2023-05-09T08:43:06;67.03;;;37.75;;
20482;SDS011;10400;53.198;6.592;2023-05-09T08:45:33;63.85;;;37.05;;
20482;SDS011;10400;53.198;6.592;2023-05-09T08:48:04;68.85;;;38.58;;
20482;SDS011;10400;53.198;6.592;2023-05-09T08:50:31;67.95;;;37.38;;
20482;SDS011;10400;53.198;6.592;2023-05-09T08:52:57;60.38;;;36.28;;
20482;SDS011;10400;53.198;6.592;2023-05-09T08:55:23;65.63;;;36.78;;
20482;SDS011;10400;53.198;6.592;2023-05-09T08:57:50;62.42;;;36.65;;
20482;SDS011;10400;53.198;6.592;2023-05-09T09:00:16;60.30;;;35.15;;
20482;SDS011;10400;53.198;6.592;2023-05-09T09:02:44;62.20;;;37.13;;
20482;SDS011;10400;53.198;6.592;2023-05-09T09:05:10;64.50;;;35.03;;
20482;SDS011;10400;53.198;6.592;2023-05-09T09:07:36;67.32;;;36.67;;
20482;SDS011;10400;53.198;6.592;2023-05-09T09:10:04;64.45;;;35.13;;
20482;SDS011;10400;53.198;6.592;2023-05-09T09:12:33;59.22;;;35.72;;
20482;SDS011;10400;53.198;6.592;2023-05-09T09:15:01;63.50;;;35.97;;
20482;SDS011;10400;53.198;6.592;2023-05-09T09:17:29;61.30;;;35.75;;
20482;SDS011;10400;53.198;6.592;2023-05-09T09:19:57;60.70;;;35.17;;
20482;SDS011;10400;53.198;6.592;2023-05-09T09:22:28;61.63;;;34.78;;
20482;SDS011;10400;53.198;6.592;2023-05-09T09:24:58;56.15;;;32.95;;
20482;SDS011;10400;53.198;6.592;2023-05-09T09:27:25;58.60;;;34.42;;
20482;SDS011;10400;53.198;6.592;2023-05-09T09:29:51;60.15;;;33.42;;
20482;SDS011;10400;53.198;6.592;2023-05-09T09:32:17;56.65;;;34.20;;
20482;SDS011;10400;53.198;6.592;2023-05-09T09:34:43;55.75;;;32.65;;
20482;SDS011;10400;53.198;6.592;2023-05-09T09:37:20;56.40;;;33.63;;
20482;SDS011;10400;53.198;6.592;2023-05-09T09:39:53;54.22;;;32.50;;
20482;SDS011;10400;53.198;6.592;2023-05-09T09:42:20;55.95;;;30.55;;
20482;SDS011;10400;53.198;6.592;2023-05-09T09:44:55;51.42;;;28.52;;
20482;SDS011;10400;53.198;6.592;2023-05-09T09:47:32;46.92;;;29.83;;
20482;SDS011;10400;53.198;6.592;2023-05-09T09:49:57;52.25;;;28.30;;
20482;SDS011;10400;53.198;6.592;2023-05-09T09:52:56;46.78;;;29.85;;
20482;SDS011;10400;53.198;6.592;2023-05-09T09:55:22;48.42;;;28.13;;
20482;SDS011;10400;53.198;6.592;2023-05-09T09:57:48;47.42;;;28.60;;
20482;SDS011;10400;53.198;6.592;2023-05-09T10:00:16;51.17;;;27.20;;
20482;SDS011;10400;53.198;6.592;2023-05-09T10:05:18;47.65;;;29.50;;
20482;SDS011;10400;53.198;6.592;2023-05-09T10:07:55;51.63;;;28.52;;
20482;SDS011;10400;53.198;6.592;2023-05-09T10:10:27;46.30;;;28.33;;
20482;SDS011;10400;53.198;6.592;2023-05-09T10:13:15;43.90;;;26.52;;
20482;SDS011;10400;53.198;6.592;2023-05-09T10:15:41;43.72;;;27.40;;
20482;SDS011;10400;53.198;6.592;2023-05-09T10:18:08;47.45;;;28.10;;
20482;SDS011;10400;53.198;6.592;2023-05-09T10:20:36;46.33;;;28.05;;
20482;SDS011;10400;53.198;6.592;2023-05-09T10:23:04;43.78;;;27.50;;
20482;SDS011;10400;53.198;6.592;2023-05-09T10:25:37;40.50;;;25.67;;
20482;SDS011;10400;53.198;6.592;2023-05-09T10:28:10;41.28;;;25.65;;
20482;SDS011;10400;53.198;6.592;2023-05-09T10:31:00;38.53;;;24.13;;
20482;SDS011;10400;53.198;6.592;2023-05-09T10:33:30;36.72;;;23.73;;
20482;SDS011;10400;53.198;6.592;2023-05-09T10:36:02;33.67;;;22.77;;
20482;SDS011;10400;53.198;6.592;2023-05-09T10:38:29;35.63;;;23.27;;
20482;SDS011;10400;53.198;6.592;2023-05-09T10:40:55;31.23;;;21.75;;
20482;SDS011;10400;53.198;6.592;2023-05-09T10:43:22;34.15;;;22.35;;
20482;SDS011;10400;53.198;6.592;2023-05-09T10:45:49;32.92;;;21.50;;
20482;SDS011;10400;53.198;6.592;2023-05-09T10:48:15;32.08;;;20.95;;
20482;SDS011;10400;53.198;6.592;2023-05-09T10:50:42;32.90;;;22.10;;
20482;SDS011;10400;53.198;6.592;2023-05-09T10:53:09;29.48;;;21.15;;
20482;SDS011;10400;53.198;6.592;2023-05-09T10:58:24;30.40;;;20.38;;
20482;SDS011;10400;53.198;6.592;2023-05-09T11:00:55;32.53;;;20.40;;
20482;SDS011;10400;53.198;6.592;2023-05-09T11:03:22;33.00;;;21.40;;
20482;SDS011;10400;53.198;6.592;2023-05-09T11:05:50;29.60;;;19.75;;
20482;SDS011;10400;53.198;6.592;2023-05-09T11:08:24;33.13;;;21.30;;
20482;SDS011;10400;53.198;6.592;2023-05-09T11:10:51;34.22;;;21.67;;
20482;SDS011;10400;53.198;6.592;2023-05-09T11:13:30;33.72;;;20.40;;
20482;SDS011;10400;53.198;6.592;2023-05-09T11:18:32;34.60;;;21.70;;
20482;SDS011;10400;53.198;6.592;2023-05-09T11:20:58;29.27;;;19.92;;
20482;SDS011;10400;53.198;6.592;2023-05-09T11:23:30;28.58;;;19.75;;
20482;SDS011;10400;53.198;6.592;2023-05-09T11:26:04;29.00;;;19.98;;
20482;SDS011;10400;53.198;6.592;2023-05-09T11:28:32;29.10;;;19.50;;
20482;SDS011;10400;53.198;6.592;2023-05-09T11:33:37;32.08;;;20.15;;
20482;SDS011;10400;53.198;6.592;2023-05-09T11:39:04;29.30;;;19.23;;
20482;SDS011;10400;53.198;6.592;2023-05-09T11:41:38;29.50;;;19.00;;
20482;SDS011;10400;53.198;6.592;2023-05-09T11:44:17;32.42;;;18.90;;
20482;SDS011;10400;53.198;6.592;2023-05-09T11:46:45;33.13;;;20.92;;
20482;SDS011;10400;53.198;6.592;2023-05-09T11:49:11;30.40;;;19.70;;
20482;SDS011;10400;53.198;6.592;2023-05-09T11:51:37;32.17;;;19.63;;
20482;SDS011;10400;53.198;6.592;2023-05-09T11:54:07;28.42;;;18.40;;
20482;SDS011;10400;53.198;6.592;2023-05-09T11:56:37;28.90;;;18.60;;
20482;SDS011;10400;53.198;6.592;2023-05-09T11:59:04;29.90;;;19.42;;
20482;SDS011;10400;53.198;6.592;2023-05-09T12:01:31;25.90;;;18.15;;
20482;SDS011;10400;53.198;6.592;2023-05-09T12:03:57;29.77;;;19.25;;
20482;SDS011;10400;53.198;6.592;2023-05-09T12:06:23;25.40;;;17.48;;
20482;SDS011;10400;53.198;6.592;2023-05-09T12:08:50;26.63;;;17.42;;
20482;SDS011;10400;53.198;6.592;2023-05-09T12:11:17;23.17;;;16.77;;
20482;SDS011;10400;53.198;6.592;2023-05-09T12:13:46;24.45;;;17.48;;
20482;SDS011;10400;53.198;6.592;2023-05-09T12:16:13;26.10;;;16.25;;
20482;SDS011;10400;53.198;6.592;2023-05-09T12:18:47;22.92;;;16.33;;
20482;SDS011;10400;53.198;6.592;2023-05-09T12:21:14;21.08;;;15.32;;
20482;SDS011;10400;53.198;6.592;2023-05-09T12:23:40;22.98;;;15.10;;
20482;SDS011;10400;53.198;6.592;2023-05-09T12:26:06;22.83;;;15.38;;
20482;SDS011;10400;53.198;6.592;2023-05-09T12:28:31;21.73;;;14.23;;
20482;SDS011;10400;53.198;6.592;2023-05-09T12:30:58;22.27;;;14.48;;
20482;SDS011;10400;53.198;6.592;2023-05-09T12:33:24;19.55;;;14.43;;
20482;SDS011;10400;53.198;6.592;2023-05-09T12:38:52;18.50;;;12.80;;
20482;SDS011;10400;53.198;6.592;2023-05-09T12:41:18;16.13;;;11.77;;
20482;SDS011;10400;53.198;6.592;2023-05-09T12:43:46;16.92;;;11.25;;
20482;SDS011;10400;53.198;6.592;2023-05-09T12:46:16;14.20;;;10.32;;
20482;SDS011;10400;53.198;6.592;2023-05-09T12:48:43;14.05;;;9.73;;
20482;SDS011;10400;53.198;6.592;2023-05-09T12:51:09;13.55;;;8.93;;
20482;SDS011;10400;53.198;6.592;2023-05-09T12:53:39;13.65;;;9.75;;
20482;SDS011;10400;53.198;6.592;2023-05-09T12:56:12;12.98;;;9.15;;
20482;SDS011;10400;53.198;6.592;2023-05-09T12:58:48;17.02;;;10.90;;
20482;SDS011;10400;53.198;6.592;2023-05-09T13:01:18;14.30;;;10.77;;
20482;SDS011;10400;53.198;6.592;2023-05-09T13:03:52;13.88;;;10.43;;
20482;SDS011;10400;53.198;6.592;2023-05-09T13:06:25;13.98;;;10.10;;
20482;SDS011;10400;53.198;6.592;2023-05-09T13:09:00;13.80;;;10.02;;
20482;SDS011;10400;53.198;6.592;2023-05-09T13:11:29;11.50;;;8.40;;
20482;SDS011;10400;53.198;6.592;2023-05-09T13:13:55;13.75;;;8.55;;
20482;SDS011;10400;53.198;6.592;2023-05-09T13:16:21;14.98;;;9.13;;
20482;SDS011;10400;53.198;6.592;2023-05-09T13:18:47;11.95;;;8.68;;
20482;SDS011;10400;53.198;6.592;2023-05-09T13:21:12;13.82;;;9.90;;
20482;SDS011;10400;53.198;6.592;2023-05-09T13:23:38;13.68;;;8.82;;
20482;SDS011;10400;53.198;6.592;2023-05-09T13:26:06;12.25;;;8.55;;
20482;SDS011;10400;53.198;6.592;2023-05-09T13:28:31;12.95;;;8.77;;
20482;SDS011;10400;53.198;6.592;2023-05-09T13:30:57;15.95;;;11.38;;
20482;SDS011;10400;53.198;6.592;2023-05-09T13:33:24;13.95;;;11.75;;
20482;SDS011;10400;53.198;6.592;2023-05-09T13:35:49;15.82;;;12.13;;
20482;SDS011;10400;53.198;6.592;2023-05-09T13:38:15;15.55;;;11.70;;
20482;SDS011;10400;53.198;6.592;2023-05-09T13:40:41;15.93;;;13.23;;
20482;SDS011;10400;53.198;6.592;2023-05-09T13:43:06;17.23;;;12.48;;
20482;SDS011;10400;53.198;6.592;2023-05-09T13:45:32;17.90;;;12.40;;
20482;SDS011;10400;53.198;6.592;2023-05-09T13:47:58;17.77;;;13.25;;
20482;SDS011;10400;53.198;6.592;2023-05-09T13:50:23;17.02;;;13.25;;
20482;SDS011;10400;53.198;6.592;2023-05-09T13:52:49;20.63;;;14.50;;
20482;SDS011;10400;53.198;6.592;2023-05-09T13:55:14;22.30;;;16.77;;
20482;SDS011;10400;53.198;6.592;2023-05-09T13:57:41;22.30;;;17.27;;
20482;SDS011;10400;53.198;6.592;2023-05-09T14:00:07;24.20;;;18.55;;
20482;SDS011;10400;53.198;6.592;2023-05-09T14:02:33;25.88;;;18.38;;
20482;SDS011;10400;53.198;6.592;2023-05-09T14:04:59;23.85;;;18.40;;
20482;SDS011;10400;53.198;6.592;2023-05-09T14:07:26;24.52;;;18.67;;
20482;SDS011;10400;53.198;6.592;2023-05-09T14:09:52;25.27;;;19.20;;
20482;SDS011;10400;53.198;6.592;2023-05-09T14:12:18;30.20;;;21.10;;
20482;SDS011;10400;53.198;6.592;2023-05-09T14:14:43;28.95;;;21.30;;
20482;SDS011;10400;53.198;6.592;2023-05-09T14:17:09;25.23;;;20.00;;
20482;SDS011;10400;53.198;6.592;2023-05-09T14:19:35;28.80;;;21.15;;
20482;SDS011;10400;53.198;6.592;2023-05-09T14:22:00;30.42;;;21.48;;
20482;SDS011;10400;53.198;6.592;2023-05-09T14:24:26;32.15;;;21.67;;
20482;SDS011;10400;53.198;6.592;2023-05-09T14:26:54;28.23;;;21.10;;
20482;SDS011;10400;53.198;6.592;2023-05-09T14:29:20;31.30;;;21.55;;
20482;SDS011;10400;53.198;6.592;2023-05-09T14:31:46;29.33;;;20.75;;
20482;SDS011;10400;53.198;6.592;2023-05-09T14:34:12;34.50;;;22.75;;
20482;SDS011;10400;53.198;6.592;2023-05-09T14:36:38;28.75;;;22.40;;
20482;SDS011;10400;53.198;6.592;2023-05-09T14:39:03;32.53;;;23.17;;
20482;SDS011;10400;53.198;6.592;2023-05-09T14:41:30;28.65;;;22.65;;
20482;SDS011;10400;53.198;6.592;2023-05-09T14:43:55;29.10;;;23.75;;
20482;SDS011;10400;53.198;6.592;2023-05-09T14:46:21;29.17;;;23.42;;
20482;SDS011;10400;53.198;6.592;2023-05-09T14:48:48;29.88;;;22.88;;